Time,TemperatureF,DewpointF,PressureIn,WindDirection,WindDirectionDegrees,WindSpeedMPH,WindSpeedGustMPH,Humidity,HourlyPrecipIn,Conditions,Clouds,dailyrainin,SoftwareType,DateUTC
2013-09-13 00:05:00,61.2,61.0,29.78,ENE,62,0.0,0.0,99,0.00,,,0.50,weatherlink.com 1.10,2013-09-13 04:05:00,
2013-09-13 00:20:00,60.9,61.0,29.77,ENE,62,0.0,0.0,99,0.00,,,0.50,weatherlink.com 1.10,2013-09-13 04:20:00,
2013-09-13 00:35:00,60.9,61.0,29.77,East,86,0.0,1.0,99,0.00,,,0.50,weatherlink.com 1.10,2013-09-13 04:35:00,
2013-09-13 00:50:00,60.5,60.0,29.77,ENE,68,0.0,1.0,99,0.00,,,0.50,weatherlink.com 1.10,2013-09-13 04:50:00,
2013-09-13 01:05:00,60.3,60.0,29.77,ENE,68,0.0,1.0,99,0.00,,,0.50,weatherlink.com 1.10,2013-09-13 05:05:00,
2013-09-13 01:20:00,60.0,60.0,29.78,ENE,68,0.0,0.0,99,0.00,,,0.50,weatherlink.com 1.10,2013-09-13 05:20:00,
2013-09-13 01:35:00,59.9,60.0,29.78,ENE,68,0.0,0.0,99,0.00,,,0.50,weatherlink.com 1.10,2013-09-13 05:35:00,
2013-09-13 01:50:00,59.9,60.0,29.78,ENE,68,0.0,1.0,99,0.00,,,0.50,weatherlink.com 1.10,2013-09-13 05:50:00,
2013-09-13 02:05:00,59.7,60.0,29.78,ENE,69,0.0,1.0,99,0.00,,,0.50,weatherlink.com 1.10,2013-09-13 06:05:00,
2013-09-13 02:20:00,59.5,59.0,29.78,ENE,69,0.0,1.0,99,0.00,,,0.50,weatherlink.com 1.10,2013-09-13 06:20:00,
2013-09-13 02:35:00,59.5,60.0,29.78,NW,315,0.0,3.0,100,0.00,,,0.50,weatherlink.com 1.10,2013-09-13 06:35:00,
2013-09-13 02:50:00,59.5,59.0,29.78,SSW,206,1.0,1.0,99,0.00,,,0.50,weatherlink.com 1.10,2013-09-13 06:50:00,
2013-09-13 03:05:00,59.3,59.0,29.77,North,7,0.0,1.0,99,0.00,,,0.50,weatherlink.com 1.10,2013-09-13 07:05:00,
2013-09-13 03:20:00,59.3,59.0,29.77,North,7,0.0,0.0,99,0.00,,,0.50,weatherlink.com 1.10,2013-09-13 07:20:00,
2013-09-13 03:35:00,59.3,59.0,29.77,North,7,0.0,1.0,99,0.00,,,0.50,weatherlink.com 1.10,2013-09-13 07:35:00,
2013-09-13 03:50:00,59.2,59.0,29.77,North,6,0.0,1.0,99,0.00,,,0.50,weatherlink.com 1.10,2013-09-13 07:50:00,
2013-09-13 04:05:00,59.0,59.0,29.77,North,6,0.0,1.0,99,0.00,,,0.50,weatherlink.com 1.10,2013-09-13 08:05:00,
2013-09-13 04:20:00,58.6,58.0,29.77,North,6,0.0,1.0,99,0.00,,,0.50,weatherlink.com 1.10,2013-09-13 08:20:00,
2013-09-13 04:35:00,58.3,58.0,29.75,North,7,0.0,1.0,99,0.00,,,0.50,weatherlink.com 1.10,2013-09-13 08:35:00,
2013-09-13 04:50:00,57.7,58.0,29.74,ENE,70,0.0,1.0,99,0.00,,,0.50,weatherlink.com 1.10,2013-09-13 08:50:00,
2013-09-13 05:05:00,57.2,57.0,29.75,ENE,70,0.0,0.0,99,0.00,,,0.50,weatherlink.com 1.10,2013-09-13 09:05:00,
2013-09-13 05:20:00,57.5,57.0,29.76,ENE,70,0.0,1.0,99,0.00,,,0.50,weatherlink.com 1.10,2013-09-13 09:20:00,
2013-09-13 05:35:00,57.0,57.0,29.77,ENE,70,0.0,1.0,99,0.01,,,0.51,weatherlink.com 1.10,2013-09-13 09:35:00,
2013-09-13 05:50:00,56.7,57.0,29.77,ENE,70,0.0,0.0,99,0.01,,,0.51,weatherlink.com 1.10,2013-09-13 09:50:00,
2013-09-13 06:05:00,56.2,56.0,29.77,ENE,70,0.0,1.0,99,0.01,,,0.51,weatherlink.com 1.10,2013-09-13 10:05:00,
2013-09-13 06:20:00,56.0,56.0,29.77,North,11,0.0,1.0,99,0.01,,,0.51,weatherlink.com 1.10,2013-09-13 10:20:00,
2013-09-13 06:35:00,56.0,56.0,29.78,West,272,0.0,2.0,99,0.00,,,0.51,weatherlink.com 1.10,2013-09-13 10:35:00,
2013-09-13 06:50:00,56.0,56.0,29.78,West,260,0.0,1.0,100,0.00,,,0.51,weatherlink.com 1.10,2013-09-13 10:50:00,
2013-09-13 07:05:00,56.0,56.0,29.79,WSW,255,0.0,2.0,99,0.00,,,0.51,weatherlink.com 1.10,2013-09-13 11:05:00,
2013-09-13 07:20:00,56.2,56.0,29.79,WSW,254,0.0,1.0,100,0.00,,,0.51,weatherlink.com 1.10,2013-09-13 11:20:00,
2013-09-13 07:35:00,56.5,57.0,29.80,WSW,252,0.0,1.0,100,0.00,,,0.51,weatherlink.com 1.10,2013-09-13 11:35:00,
2013-09-13 07:50:00,56.3,56.0,29.80,WSW,238,0.0,2.0,99,0.00,,,0.51,weatherlink.com 1.10,2013-09-13 11:50:00,
2013-09-13 08:05:00,56.7,57.0,29.81,WSW,238,0.0,1.0,99,0.00,,,0.51,weatherlink.com 1.10,2013-09-13 12:05:00,
2013-09-13 08:20:00,56.8,56.0,29.81,NE,51,0.0,3.0,98,0.00,,,0.51,weatherlink.com 1.10,2013-09-13 12:20:00,
2013-09-13 08:35:00,57.5,56.0,29.81,West,269,0.0,2.0,96,0.00,,,0.51,weatherlink.com 1.10,2013-09-13 12:35:00,
2013-09-13 08:50:00,58.1,56.0,29.81,NNW,335,0.0,2.0,94,0.00,,,0.51,weatherlink.com 1.10,2013-09-13 12:50:00,
2013-09-13 09:05:00,58.6,56.0,29.81,West,267,0.0,5.0,92,0.00,,,0.51,weatherlink.com 1.10,2013-09-13 13:05:00,
2013-09-13 09:20:00,59.7,56.0,29.82,North,350,3.0,6.0,88,0.00,,,0.51,weatherlink.com 1.10,2013-09-13 13:20:00,
2013-09-13 09:35:00,60.3,56.0,29.82,North,7,2.0,10.0,86,0.00,,,0.51,weatherlink.com 1.10,2013-09-13 13:35:00,
2013-09-13 09:50:00,61.0,56.0,29.82,North,2,1.0,7.0,82,0.00,,,0.51,weatherlink.com 1.10,2013-09-13 13:50:00,
2013-09-13 10:05:00,60.8,56.0,29.82,WSW,255,0.0,6.0,83,0.00,,,0.51,weatherlink.com 1.10,2013-09-13 14:05:00,
2013-09-13 10:20:00,61.2,56.0,29.82,NNE,17,3.0,4.0,83,0.00,,,0.51,weatherlink.com 1.10,2013-09-13 14:20:00,
2013-09-13 10:35:00,61.4,56.0,29.82,NE,49,0.0,7.0,83,0.00,,,0.51,weatherlink.com 1.10,2013-09-13 14:35:00,
2013-09-13 10:50:00,61.3,57.0,29.83,NE,45,1.0,4.0,84,0.00,,,0.51,weatherlink.com 1.10,2013-09-13 14:50:00,
2013-09-13 11:06:00,61.2,56.0,29.82,NNW,327,0.0,6.0,84,0.00,,,0.51,weatherlink.com 1.10,2013-09-13 15:06:00,
2013-09-13 11:21:00,62.1,56.0,29.82,West,274,1.0,5.0,81,0.00,,,0.51,weatherlink.com 1.10,2013-09-13 15:21:00,
2013-09-13 11:36:00,62.0,56.0,29.82,WSW,256,6.0,9.0,81,0.00,,,0.51,weatherlink.com 1.10,2013-09-13 15:36:00,
2013-09-13 11:51:00,62.5,57.0,29.83,NE,37,1.0,7.0,81,0.00,,,0.00,weatherlink.com 1.10,2013-09-13 15:51:00,
2013-09-13 12:06:00,60.1,57.0,29.83,East,87,0.0,5.0,89,0.05,,,0.05,weatherlink.com 1.10,2013-09-13 16:06:00,
2013-09-13 12:21:00,59.1,57.0,29.83,West,263,2.0,2.0,93,0.05,,,0.05,weatherlink.com 1.10,2013-09-13 16:21:00,
2013-09-13 12:36:00,58.9,58.0,29.83,WSW,248,0.0,5.0,95,0.06,,,0.06,weatherlink.com 1.10,2013-09-13 16:36:00,
2013-09-13 12:51:00,59.5,58.0,29.83,WSW,256,1.0,2.0,95,0.06,,,0.06,weatherlink.com 1.10,2013-09-13 16:51:00,
2013-09-13 13:06:00,61.0,58.0,29.82,SSW,200,0.0,7.0,90,0.01,,,0.06,weatherlink.com 1.10,2013-09-13 17:06:00,
2013-09-13 13:21:00,62.1,56.0,29.82,ENE,66,1.0,11.0,80,0.01,,,0.06,weatherlink.com 1.10,2013-09-13 17:21:00,
2013-09-13 13:36:00,61.8,55.0,29.82,NNW,340,10.0,12.0,78,0.00,,,0.06,weatherlink.com 1.10,2013-09-13 17:36:00,
2013-09-13 13:51:00,60.1,55.0,29.84,NNE,32,5.0,10.0,84,0.00,,,0.06,weatherlink.com 1.10,2013-09-13 17:51:00,
2013-09-13 14:06:00,60.8,55.0,29.83,NNE,18,5.0,14.0,80,0.00,,,0.06,weatherlink.com 1.10,2013-09-13 18:06:00,
2013-09-13 14:21:00,60.4,54.0,29.84,North,11,6.0,15.0,80,0.00,,,0.06,weatherlink.com 1.10,2013-09-13 18:21:00,
2013-09-13 14:36:00,61.5,54.0,29.84,NNE,33,6.0,8.0,77,0.00,,,0.06,weatherlink.com 1.10,2013-09-13 18:36:00,
2013-09-13 14:51:00,61.5,54.0,29.84,NE,34,2.0,9.0,77,0.00,,,0.06,weatherlink.com 1.10,2013-09-13 18:51:00,
2013-09-13 15:06:00,61.8,54.0,29.83,North,360,3.0,9.0,75,0.00,,,0.06,weatherlink.com 1.10,2013-09-13 19:06:00,
2013-09-13 15:21:00,62.2,54.0,29.84,East,79,2.0,8.0,74,0.00,,,0.06,weatherlink.com 1.10,2013-09-13 19:21:00,
2013-09-13 15:36:00,61.4,54.0,29.84,North,11,1.0,6.0,76,0.00,,,0.06,weatherlink.com 1.10,2013-09-13 19:36:00,
2013-09-13 15:51:00,59.0,52.0,29.85,NNE,26,2.0,8.0,78,0.00,,,0.06,weatherlink.com 1.10,2013-09-13 19:51:00,
2013-09-13 16:06:00,58.2,52.0,29.86,ENE,77,0.0,5.0,81,0.00,,,0.06,weatherlink.com 1.10,2013-09-13 20:06:00,
2013-09-13 16:21:00,57.7,54.0,29.86,WSW,238,2.0,3.0,87,0.01,,,0.07,weatherlink.com 1.10,2013-09-13 20:21:00,
2013-09-13 16:36:00,57.0,54.0,29.87,SSW,204,0.0,4.0,90,0.02,,,0.08,weatherlink.com 1.10,2013-09-13 20:36:00,
2013-09-13 16:51:00,56.8,55.0,29.87,West,278,0.0,2.0,92,0.02,,,0.08,weatherlink.com 1.10,2013-09-13 20:51:00,
2013-09-13 17:06:00,56.9,55.0,29.87,West,266,1.0,2.0,94,0.02,,,0.08,weatherlink.com 1.10,2013-09-13 21:06:00,
2013-09-13 17:21:00,57.3,56.0,29.87,West,281,0.0,0.0,95,0.01,,,0.08,weatherlink.com 1.10,2013-09-13 21:21:00,
2013-09-13 17:36:00,57.2,56.0,29.88,SW,235,0.0,4.0,94,0.00,,,0.08,weatherlink.com 1.10,2013-09-13 21:36:00,
2013-09-13 17:51:00,57.3,56.0,29.88,West,266,0.0,4.0,94,0.00,,,0.08,weatherlink.com 1.10,2013-09-13 21:51:00,
2013-09-13 18:06:00,57.4,56.0,29.88,NNW,340,0.0,3.0,95,0.00,,,0.08,weatherlink.com 1.10,2013-09-13 22:06:00,
2013-09-13 18:21:00,57.9,54.0,29.88,NNW,342,1.0,3.0,86,0.00,,,0.08,weatherlink.com 1.10,2013-09-13 22:21:00,
2013-09-13 18:36:00,58.0,52.0,29.88,NNW,328,0.0,2.0,81,0.00,,,0.08,weatherlink.com 1.10,2013-09-13 22:36:00,
2013-09-13 18:51:00,57.6,52.0,29.89,NNE,33,0.0,4.0,81,0.00,,,0.08,weatherlink.com 1.10,2013-09-13 22:51:00,
2013-09-13 19:06:00,57.4,52.0,29.89,SSW,203,3.0,4.0,81,0.00,,,0.08,weatherlink.com 1.10,2013-09-13 23:06:00,
2013-09-13 19:21:00,56.8,50.0,29.90,North,1,1.0,5.0,79,0.00,,,0.08,weatherlink.com 1.10,2013-09-13 23:21:00,
2013-09-13 19:37:00,56.3,50.0,29.91,East,85,1.0,9.0,79,0.00,,,0.08,weatherlink.com 1.10,2013-09-13 23:37:00,
2013-09-13 19:52:00,55.6,50.0,29.92,NE,37,1.0,8.0,80,0.00,,,0.08,weatherlink.com 1.10,2013-09-13 23:52:00,
2013-09-13 20:07:00,54.6,50.0,29.93,East,99,0.0,1.0,85,0.00,,,0.08,weatherlink.com 1.10,2013-09-14 00:07:00,
2013-09-13 20:22:00,53.6,51.0,29.94,East,99,0.0,1.0,89,0.00,,,0.08,weatherlink.com 1.10,2013-09-14 00:22:00,
2013-09-13 20:37:00,52.9,50.0,29.94,NE,39,0.0,2.0,88,0.00,,,0.08,weatherlink.com 1.10,2013-09-14 00:37:00,
2013-09-13 20:52:00,52.6,50.0,29.95,NE,40,1.0,1.0,89,0.00,,,0.08,weatherlink.com 1.10,2013-09-14 00:52:00,
2013-09-13 21:07:00,52.3,49.0,29.95,NE,42,0.0,5.0,89,0.00,,,0.08,weatherlink.com 1.10,2013-09-14 01:07:00,
2013-09-13 21:22:00,52.3,49.0,29.96,NE,44,0.0,4.0,87,0.00,,,0.08,weatherlink.com 1.10,2013-09-14 01:22:00,
2013-09-13 21:37:00,51.5,48.0,29.97,NNE,32,0.0,2.0,88,0.00,,,0.08,weatherlink.com 1.10,2013-09-14 01:37:00,
2013-09-13 21:52:00,50.9,48.0,29.97,NNW,345,0.0,3.0,89,0.00,,,0.08,weatherlink.com 1.10,2013-09-14 01:52:00,
2013-09-13 22:07:00,49.6,47.0,29.97,NNW,345,0.0,0.0,91,0.00,,,0.08,weatherlink.com 1.10,2013-09-14 02:07:00,
2013-09-13 22:22:00,48.5,47.0,29.97,NNW,347,0.0,0.0,94,0.00,,,0.08,weatherlink.com 1.10,2013-09-14 02:22:00,
2013-09-13 22:37:00,48.3,47.0,29.98,NNW,347,0.0,1.0,96,0.00,,,0.08,weatherlink.com 1.10,2013-09-14 02:37:00,
2013-09-13 22:52:00,48.1,47.0,29.98,NE,56,0.0,0.0,96,0.00,,,0.08,weatherlink.com 1.10,2013-09-14 02:52:00,
2013-09-13 23:07:00,47.8,47.0,29.98,NE,56,0.0,0.0,97,0.00,,,0.08,weatherlink.com 1.10,2013-09-14 03:07:00,
2013-09-13 23:22:00,47.7,47.0,29.99,ENE,63,0.0,1.0,98,0.00,,,0.08,weatherlink.com 1.10,2013-09-14 03:22:00,
2013-09-13 23:37:00,48.1,48.0,29.99,ENE,63,0.0,1.0,98,0.00,,,0.08,weatherlink.com 1.10,2013-09-14 03:37:00,
2013-09-13 23:52:00,48.2,48.0,29.99,ENE,63,0.0,1.0,98,0.00,,,0.08,weatherlink.com 1.10,2013-09-14 03:52:00,